Time;durP1;ratioP1;P1;durP2;ratioP2;P2;SDS_P1;SDS_P2;PMS_P1;PMS_P2;Temp;Humidity;BMP_temperature;BMP_pressure;BME280_temperature;BME280_humidity;BME280_pressure;Samples;Min_cycle;Max_cycle;Signal;HPM_P1;HPM_P2
2023/04/04 00:00:25;;;;;;;;;;;11.20;66.40;;;;;;5114560;28;19907;-75
2023/04/04 00:02:51;;;;;;;;;;;11.20;66.40;;;;;;5114945;28;19908;-75
2023/04/04 00:05:17;;;;;;;;;;;11.20;66.40;;;;;;5114978;28;19903;-76
2023/04/04 00:07:46;;;;;;;;;;;11.20;66.40;;;;;;5114799;28;19915;-75
2023/04/04 00:10:11;;;;;;;;;;;11.20;66.40;;;;;;5114762;28;19962;-75
2023/04/04 00:12:37;;;;;;;;;;;11.20;66.40;;;;;;5114499;28;20281;-75
2023/04/04 00:15:03;;;;;;;;;;;11.20;66.40;;;;;;5114704;28;19907;-75
2023/04/04 00:17:28;;;;;;;;;;;11.20;66.40;;;;;;5114948;28;19904;-75
2023/04/04 00:19:56;;;;;;;;;;;11.20;66.40;;;;;;5114401;28;19904;-75
2023/04/04 00:22:21;;;;;;;;;;;11.20;66.30;;;;;;5114248;28;20353;-75
2023/04/04 00:24:47;;;;;;;;;;;11.20;66.20;;;;;;5114559;28;19911;-75
2023/04/04 00:27:13;;;;;;;;;;;11.20;66.20;;;;;;5114474;28;20410;-75
2023/04/04 00:29:38;;;;;;;;;;;11.10;66.20;;;;;;5113897;28;19998;-76
2023/04/04 00:32:04;;;;;;;;;;;11.10;66.30;;;;;;5114242;28;19904;-75
2023/04/04 00:34:30;;;;;;;;;;;11.10;66.40;;;;;;5114574;28;19908;-75
2023/04/04 00:36:55;;;;;;;;;;;11.00;66.40;;;;;;5114310;28;20375;-76
2023/04/04 00:39:22;;;;;;;;;;;11.10;66.30;;;;;;5114490;28;19914;-76
2023/04/04 00:41:48;;;;;;;;;;;11.10;66.30;;;;;;5114332;28;20346;-76
2023/04/04 00:44:14;;;;;;;;;;;11.10;66.20;;;;;;5113678;28;19953;-76
2023/04/04 00:46:40;;;;;;;;;;;11.10;66.10;;;;;;5114243;28;19904;-76
2023/04/04 00:49:05;;;;;;;;;;;11.00;66.10;;;;;;5114217;28;19915;-76
2023/04/04 00:51:31;;;;;;;;;;;11.00;66.10;;;;;;5114350;28;19911;-76
2023/04/04 00:53:57;;;;;;;;;;;11.00;66.10;;;;;;5114089;28;20384;-76
2023/04/04 00:56:24;;;;;;;;;;;11.00;66.10;;;;;;5114226;28;19916;-76
2023/04/04 00:58:49;;;;;;;;;;;11.00;66.10;;;;;;5114140;28;19904;-76
2023/04/04 01:01:15;;;;;;;;;;;10.90;66.10;;;;;;5113870;28;19914;-76
2023/04/04 01:03:41;;;;;;;;;;;10.90;66.20;;;;;;5115413;28;19911;-76
2023/04/04 01:06:07;;;;;;;;;;;10.90;66.30;;;;;;5117914;28;20353;-75
2023/04/04 01:08:35;;;;;;;;;;;10.90;66.10;;;;;;5117819;28;20349;-76
2023/04/04 01:11:00;;;;;;;;;;;10.90;66.10;;;;;;5118018;28;19907;-76
2023/04/04 01:13:26;;;;;;;;;;;10.90;66.10;;;;;;5118200;28;19956;-76
2023/04/04 01:15:52;;;;;;;;;;;10.90;66.10;;;;;;5117009;28;19903;-76
2023/04/04 01:18:19;;;;;;;;;;;10.90;66.00;;;;;;5117936;28;19950;-76
2023/04/04 01:21:06;;;;;;;;;;;10.90;66.00;;;;;;5117537;28;19903;-76
2023/04/04 01:23:41;;;;;;;;;;;10.80;65.90;;;;;;5082441;28;19952;-76
2023/04/04 01:26:06;;;;;;;;;;;10.90;65.90;;;;;;5117814;28;19907;-76
2023/04/04 01:28:32;;;;;;;;;;;10.80;65.90;;;;;;5117665;28;20272;-76
2023/04/04 01:30:59;;;;;;;;;;;10.80;65.90;;;;;;5117487;28;19911;-75
2023/04/04 01:33:26;;;;;;;;;;;10.80;65.90;;;;;;5117993;28;20010;-75
2023/04/04 01:35:58;;;;;;;;;;;10.80;65.80;;;;;;5116877;28;19964;-75
2023/04/04 01:38:26;;;;;;;;;;;10.80;65.80;;;;;;5117553;28;20376;-75
2023/04/04 01:40:55;;;;;;;;;;;10.80;65.90;;;;;;5117198;28;20361;-75
2023/04/04 01:43:21;;;;;;;;;;;10.80;65.90;;;;;;5117612;28;19904;-76
2023/04/04 01:45:48;;;;;;;;;;;10.80;66.00;;;;;;5117116;28;20301;-75
2023/04/04 01:48:15;;;;;;;;;;;10.70;65.90;;;;;;5116971;28;19914;-75
2023/04/04 01:50:41;;;;;;;;;;;10.70;65.90;;;;;;5117315;28;19947;-75
2023/04/04 01:53:06;;;;;;;;;;;10.70;65.90;;;;;;5117212;28;20430;-75
2023/04/04 01:55:32;;;;;;;;;;;10.70;65.90;;;;;;5116650;28;20411;-76
2023/04/04 01:57:57;;;;;;;;;;;10.70;65.90;;;;;;5116745;28;19908;-75
2023/04/04 02:00:23;;;;;;;;;;;10.70;65.90;;;;;;5117246;28;19904;-75
2023/04/04 02:02:48;;;;;;;;;;;10.70;65.80;;;;;;5117038;28;19910;-75
2023/04/04 02:05:14;;;;;;;;;;;10.70;65.90;;;;;;5117008;28;20332;-75
2023/04/04 02:07:40;;;;;;;;;;;10.70;65.80;;;;;;5116540;28;19951;-75
2023/04/04 02:10:05;;;;;;;;;;;10.70;65.80;;;;;;5116368;28;19912;-76
2023/04/04 02:12:31;;;;;;;;;;;10.70;65.80;;;;;;5117077;28;20246;-76
2023/04/04 02:14:56;;;;;;;;;;;10.70;65.80;;;;;;5115595;28;19904;-76
2023/04/04 02:17:22;;;;;;;;;;;10.70;65.80;;;;;;5117065;28;19904;-76
2023/04/04 02:19:48;;;;;;;;;;;10.70;65.70;;;;;;5116743;28;20265;-76
2023/04/04 02:22:14;;;;;;;;;;;10.70;65.80;;;;;;5116667;28;20368;-76
2023/04/04 02:24:39;;;;;;;;;;;10.70;65.70;;;;;;5116261;28;19914;-76
2023/04/04 02:27:05;;;;;;;;;;;10.70;65.70;;;;;;5116485;28;19903;-76
2023/04/04 02:29:31;;;;;;;;;;;10.70;65.70;;;;;;5116468;28;19959;-76
2023/04/04 02:31:56;;;;;;;;;;;10.70;65.70;;;;;;5116346;28;19914;-74
2023/04/04 02:34:22;;;;;;;;;;;10.70;65.70;;;;;;5116576;28;19907;-74
2023/04/04 02:36:47;;;;;;;;;;;10.70;65.60;;;;;;5116438;28;20362;-75
2023/04/04 02:39:13;;;;;;;;;;;10.70;65.60;;;;;;5097438;28;19903;-75
2023/04/04 02:41:38;;;;;;;;;;;10.70;65.50;;;;;;5116330;28;19908;-76
2023/04/04 02:44:04;;;;;;;;;;;10.70;65.50;;;;;;5115917;28;19903;-75
2023/04/04 02:46:29;;;;;;;;;;;10.70;65.50;;;;;;5116277;28;19903;-75
2023/04/04 02:48:55;;;;;;;;;;;10.70;65.40;;;;;;5116051;28;19907;-76
2023/04/04 02:51:21;;;;;;;;;;;10.70;65.40;;;;;;5115894;28;19919;-77
2023/04/04 02:53:46;;;;;;;;;;;10.70;65.40;;;;;;5115793;28;20369;-76
2023/04/04 02:56:12;;;;;;;;;;;10.80;65.40;;;;;;5116255;28;19920;-76
2023/04/04 02:58:37;;;;;;;;;;;10.70;65.30;;;;;;5116166;28;19910;-76
2023/04/04 03:01:03;;;;;;;;;;;10.70;65.20;;;;;;5097189;28;19907;-76
2023/04/04 03:03:28;;;;;;;;;;;10.70;65.40;;;;;;5115620;28;20246;-76
2023/04/04 03:05:54;;;;;;;;;;;10.70;65.30;;;;;;5097564;28;19910;-76
2023/04/04 03:08:19;;;;;;;;;;;10.70;65.30;;;;;;5115341;28;19915;-76
2023/04/04 03:10:46;;;;;;;;;;;10.70;65.30;;;;;;5097403;28;19972;-76
2023/04/04 03:13:11;;;;;;;;;;;10.70;65.30;;;;;;5115615;28;20003;-76
2023/04/04 03:15:39;;;;;;;;;;;10.70;65.20;;;;;;5115705;28;19938;-76
2023/04/04 03:18:05;;;;;;;;;;;10.70;65.30;;;;;;5115424;28;19950;-76
2023/04/04 03:20:30;;;;;;;;;;;10.70;65.30;;;;;;5115529;28;19935;-76
2023/04/04 03:22:57;;;;;;;;;;;10.70;65.30;;;;;;5115150;28;20006;-76
2023/04/04 03:25:22;;;;;;;;;;;10.70;65.30;;;;;;5096015;28;19908;-76
2023/04/04 03:27:48;;;;;;;;;;;10.70;65.30;;;;;;5114673;28;20289;-76
2023/04/04 03:30:13;;;;;;;;;;;10.70;65.20;;;;;;5114583;28;20002;-76
2023/04/04 03:32:39;;;;;;;;;;;10.70;65.30;;;;;;5114259;28;20002;-76
2023/04/04 03:35:05;;;;;;;;;;;10.70;65.20;;;;;;5097564;28;19937;-76
2023/04/04 03:37:31;;;;;;;;;;;10.70;65.20;;;;;;5114585;28;20003;-75
2023/04/04 03:39:57;;;;;;;;;;;10.70;65.20;;;;;;5114949;28;19994;-76
2023/04/04 03:42:22;;;;;;;;;;;10.70;65.20;;;;;;5115049;28;19963;-76
2023/04/04 03:44:48;;;;;;;;;;;10.70;65.20;;;;;;5114254;28;20270;-76
2023/04/04 03:47:13;;;;;;;;;;;10.70;65.20;;;;;;5114914;28;20414;-76
2023/04/04 03:49:39;;;;;;;;;;;10.70;65.20;;;;;;5114770;28;19919;-76
2023/04/04 03:52:04;;;;;;;;;;;10.60;65.20;;;;;;5112601;28;20006;-76
2023/04/04 03:54:30;;;;;;;;;;;10.60;65.20;;;;;;5114930;28;19908;-76
2023/04/04 03:56:56;;;;;;;;;;;10.60;65.20;;;;;;5114630;28;19916;-77
2023/04/04 03:59:21;;;;;;;;;;;10.60;65.30;;;;;;5114605;28;19908;-76
2023/04/04 04:01:47;;;;;;;;;;;10.60;65.30;;;;;;5114503;28;20414;-76
2023/04/04 04:04:12;;;;;;;;;;;10.60;65.40;;;;;;5096223;28;19994;-75
2023/04/04 04:06:38;;;;;;;;;;;10.60;65.30;;;;;;5114251;28;19904;-76
2023/04/04 04:09:03;;;;;;;;;;;10.60;65.30;;;;;;5114575;28;20344;-75
2023/04/04 04:11:29;;;;;;;;;;;10.60;65.40;;;;;;5103896;28;20385;-75
2023/04/04 04:13:55;;;;;;;;;;;10.60;65.40;;;;;;5094012;28;19953;-75
2023/04/04 04:16:21;;;;;;;;;;;10.50;65.40;;;;;;5109671;28;20438;-76
2023/04/04 04:18:47;;;;;;;;;;;10.60;65.40;;;;;;5114447;28;19908;-76
2023/04/04 04:21:12;;;;;;;;;;;10.60;65.50;;;;;;5114576;28;20005;-77
2023/04/04 04:23:38;;;;;;;;;;;10.60;65.40;;;;;;5114029;28;19903;-76
2023/04/04 04:26:04;;;;;;;;;;;10.50;65.40;;;;;;5114507;28;19907;-76
2023/04/04 04:28:29;;;;;;;;;;;10.50;66.00;;;;;;5114272;28;19912;-75
2023/04/04 04:30:55;;;;;;;;;;;10.50;65.50;;;;;;5114372;28;19907;-76
2023/04/04 04:33:28;;;;;;;;;;;10.50;65.50;;;;;;5114412;28;20400;-76
2023/04/04 04:35:57;;;;;;;;;;;10.50;66.10;;;;;;5113784;28;19951;-76
2023/04/04 04:38:23;;;;;;;;;;;10.50;65.50;;;;;;5115374;28;19904;-76
2023/04/04 04:40:48;;;;;;;;;;;10.60;65.50;;;;;;5118251;28;19910;-75
2023/04/04 04:43:14;;;;;;;;;;;10.60;65.40;;;;;;5118008;28;19904;-76
2023/04/04 04:45:41;;;;;;;;;;;10.60;65.30;;;;;;5118342;28;19956;-76
2023/04/04 04:48:06;;;;;;;;;;;10.60;65.40;;;;;;5118589;28;19912;-76
2023/04/04 04:50:32;;;;;;;;;;;10.60;65.30;;;;;;5117845;28;19912;-76
2023/04/04 04:52:57;;;;;;;;;;;10.60;65.40;;;;;;5118015;28;19904;-76
2023/04/04 04:55:23;;;;;;;;;;;10.60;65.40;;;;;;5117857;28;20002;-77
2023/04/04 04:57:48;;;;;;;;;;;10.60;65.30;;;;;;5117926;28;19907;-76
2023/04/04 05:00:15;;;;;;;;;;;10.60;65.30;;;;;;5117605;28;20338;-76
2023/04/04 05:02:40;;;;;;;;;;;10.60;65.20;;;;;;5118068;28;20326;-76
2023/04/04 05:05:06;;;;;;;;;;;10.70;65.30;;;;;;5117462;28;19953;-77
2023/04/04 05:07:32;;;;;;;;;;;10.70;65.30;;;;;;5117085;28;19907;-77
2023/04/04 05:09:57;;;;;;;;;;;10.70;65.20;;;;;;5117748;28;19911;-75
2023/04/04 05:12:23;;;;;;;;;;;10.70;65.20;;;;;;5117673;28;19912;-76
2023/04/04 05:14:49;;;;;;;;;;;10.60;65.20;;;;;;5117867;28;19904;-76
2023/04/04 05:17:14;;;;;;;;;;;10.70;65.30;;;;;;5117692;28;20005;-76
2023/04/04 05:19:40;;;;;;;;;;;10.70;65.30;;;;;;5117843;28;20265;-76
2023/04/04 05:22:06;;;;;;;;;;;10.70;65.20;;;;;;5117837;28;19925;-76
2023/04/04 05:24:32;;;;;;;;;;;10.70;65.20;;;;;;5117397;28;19964;-76
2023/04/04 05:26:57;;;;;;;;;;;10.80;65.10;;;;;;5117476;28;19903;-76
2023/04/04 05:29:23;;;;;;;;;;;10.80;65.10;;;;;;5117490;28;20006;-76
2023/04/04 05:31:49;;;;;;;;;;;10.90;64.90;;;;;;5117723;28;20357;-77
2023/04/04 05:34:14;;;;;;;;;;;10.90;64.90;;;;;;5098632;28;19952;-76
2023/04/04 05:36:40;;;;;;;;;;;10.90;64.90;;;;;;5116831;28;19907;-77
2023/04/04 05:39:06;;;;;;;;;;;10.90;64.80;;;;;;5117472;28;19931;-77
2023/04/04 05:41:32;;;;;;;;;;;10.90;64.80;;;;;;5117216;28;20357;-76
2023/04/04 05:43:57;;;;;;;;;;;10.90;64.70;;;;;;5098519;28;19907;-77
2023/04/04 05:46:23;;;;;;;;;;;10.90;64.60;;;;;;5117660;28;19929;-75
2023/04/04 05:48:51;;;;;;;;;;;10.90;64.70;;;;;;5117220;28;20283;-78
2023/04/04 05:51:17;;;;;;;;;;;10.90;64.60;;;;;;5116723;28;19998;-79
2023/04/04 05:53:44;;;;;;;;;;;11.00;64.60;;;;;;5117284;28;19946;-77
2023/04/04 05:56:10;;;;;;;;;;;10.90;64.50;;;;;;5117046;28;19916;-78
2023/04/04 05:58:36;;;;;;;;;;;11.00;64.50;;;;;;5117261;28;20950;-78
2023/04/04 06:01:05;;;;;;;;;;;11.00;64.50;;;;;;5116930;28;19911;-76
2023/04/04 06:03:30;;;;;;;;;;;11.00;64.40;;;;;;5116892;28;19930;-79
2023/04/04 06:05:56;;;;;;;;;;;11.10;64.50;;;;;;5116790;28;19907;-75
2023/04/04 06:08:21;;;;;;;;;;;11.10;64.40;;;;;;5106102;28;19912;-75
2023/04/04 06:10:47;;;;;;;;;;;11.00;64.30;;;;;;5096833;28;19908;-76
2023/04/04 06:13:12;;;;;;;;;;;11.00;64.30;;;;;;5106191;28;19908;-78
2023/04/04 06:15:38;;;;;;;;;;;11.10;64.40;;;;;;5115432;28;19907;-75
2023/04/04 06:18:03;;;;;;;;;;;11.00;64.20;;;;;;5097680;28;19934;-74
2023/04/04 06:20:29;;;;;;;;;;;11.00;64.30;;;;;;5116681;28;19926;-74
2023/04/04 06:22:55;;;;;;;;;;;11.00;64.20;;;;;;5116381;28;19939;-75
2023/04/04 06:25:20;;;;;;;;;;;11.10;64.30;;;;;;5115791;28;19998;-75
2023/04/04 06:27:46;;;;;;;;;;;11.10;64.20;;;;;;5115880;28;19964;-74
2023/04/04 06:30:13;;;;;;;;;;;11.10;64.00;;;;;;5098058;28;19998;-75
2023/04/04 06:32:38;;;;;;;;;;;11.10;64.00;;;;;;5098328;28;19907;-78
2023/04/04 06:35:04;;;;;;;;;;;11.20;63.90;;;;;;5116010;28;20281;-75
2023/04/04 06:37:30;;;;;;;;;;;11.20;63.90;;;;;;5112641;28;19927;-79
2023/04/04 06:39:55;;;;;;;;;;;11.30;63.90;;;;;;5094551;28;19909;-73
2023/04/04 06:42:21;;;;;;;;;;;11.30;63.80;;;;;;5081358;28;20327;-79
2023/04/04 06:44:47;;;;;;;;;;;11.40;65.10;;;;;;5115473;28;19908;-76
2023/04/04 06:47:13;;;;;;;;;;;11.40;65.20;;;;;;5114809;28;19911;-77
2023/04/04 06:49:38;;;;;;;;;;;11.50;64.90;;;;;;5115545;28;19915;-78
2023/04/04 06:52:04;;;;;;;;;;;11.50;64.40;;;;;;5115824;28;19987;-77
2023/04/04 06:54:30;;;;;;;;;;;11.50;64.10;;;;;;5115328;28;19908;-78
2023/04/04 06:56:56;;;;;;;;;;;11.50;64.00;;;;;;5115381;28;19919;-75
2023/04/04 06:59:21;;;;;;;;;;;11.50;63.90;;;;;;5115672;28;19907;-71
2023/04/04 07:01:47;;;;;;;;;;;11.60;63.90;;;;;;5115191;28;20341;-73
2023/04/04 07:04:12;;;;;;;;;;;11.60;63.70;;;;;;5115705;28;19956;-76
2023/04/04 07:06:38;;;;;;;;;;;11.60;63.70;;;;;;5115511;28;19908;-75
2023/04/04 07:09:03;;;;;;;;;;;11.60;63.60;;;;;;5115575;28;20378;-75
2023/04/04 07:11:30;;;;;;;;;;;11.60;63.60;;;;;;5114234;28;19911;-77
2023/04/04 07:13:55;;;;;;;;;;;11.70;63.40;;;;;;5115049;28;19984;-72
2023/04/04 07:16:21;;;;;;;;;;;11.70;63.30;;;;;;5115502;28;19908;-78
2023/04/04 07:18:46;;;;;;;;;;;11.80;63.20;;;;;;5114613;28;19918;-78
2023/04/04 07:21:12;;;;;;;;;;;11.80;63.00;;;;;;5115112;28;20415;-73
2023/04/04 07:23:38;;;;;;;;;;;11.80;63.00;;;;;;5115497;28;20311;-71
2023/04/04 07:26:03;;;;;;;;;;;11.90;62.90;;;;;;5107303;28;19908;-77
2023/04/04 07:28:30;;;;;;;;;;;11.90;62.70;;;;;;5097111;28;19919;-76
2023/04/04 07:31:02;;;;;;;;;;;12.00;62.80;;;;;;5115091;28;19907;-71
2023/04/04 07:33:27;;;;;;;;;;;12.00;62.80;;;;;;5115054;28;19964;-78
2023/04/04 07:35:53;;;;;;;;;;;12.00;62.40;;;;;;5114879;28;19916;-81
2023/04/04 07:38:19;;;;;;;;;;;12.00;62.40;;;;;;5114905;28;19935;-76
2023/04/04 07:40:45;;;;;;;;;;;12.10;62.40;;;;;;5115102;28;19953;-79
2023/04/04 07:43:10;;;;;;;;;;;12.10;62.50;;;;;;5096286;28;20365;-81
2023/04/04 07:45:36;;;;;;;;;;;12.10;62.30;;;;;;5096673;28;20003;-74
2023/04/04 07:48:02;;;;;;;;;;;12.10;62.20;;;;;;5096586;28;19912;-78
2023/04/04 07:50:28;;;;;;;;;;;12.10;62.20;;;;;;5096812;28;19914;-78
2023/04/04 07:52:54;;;;;;;;;;;12.10;62.20;;;;;;5114645;28;19903;-78
2023/04/04 07:55:20;;;;;;;;;;;12.20;62.10;;;;;;5110510;28;19955;-77
2023/04/04 07:57:46;;;;;;;;;;;12.20;62.20;;;;;;5076107;28;19904;-84
2023/04/04 08:00:12;;;;;;;;;;;12.20;62.00;;;;;;5090475;28;19916;-73
2023/04/04 08:02:37;;;;;;;;;;;12.20;62.00;;;;;;5094198;28;20369;-73
2023/04/04 08:05:03;;;;;;;;;;;12.20;62.00;;;;;;5094367;28;19947;-75
2023/04/04 08:07:29;;;;;;;;;;;12.20;62.00;;;;;;5075808;28;19930;-76
2023/04/04 08:09:55;;;;;;;;;;;12.30;62.10;;;;;;5094347;28;19915;-75
2023/04/04 08:12:20;;;;;;;;;;;12.30;62.00;;;;;;5094266;28;19949;-73
2023/04/04 08:14:46;;;;;;;;;;;12.30;62.20;;;;;;5094424;28;19947;-76
2023/04/04 08:17:11;;;;;;;;;;;12.30;61.90;;;;;;5075944;28;19919;-84
2023/04/04 08:19:37;;;;;;;;;;;12.30;61.90;;;;;;5093852;28;19983;-78
2023/04/04 08:22:03;;;;;;;;;;;12.20;61.80;;;;;;5094179;28;19904;-76
2023/04/04 08:24:28;;;;;;;;;;;12.30;61.90;;;;;;5094173;28;19908;-71
2023/04/04 08:26:54;;;;;;;;;;;12.30;62.00;;;;;;5094247;28;20042;-75
2023/04/04 08:29:19;;;;;;;;;;;12.30;61.80;;;;;;5093937;28;19912;-72
2023/04/04 08:31:45;;;;;;;;;;;12.30;61.80;;;;;;5093965;28;19943;-75
2023/04/04 08:34:10;;;;;;;;;;;12.30;61.80;;;;;;5093880;28;19904;-74
2023/04/04 08:36:36;;;;;;;;;;;12.30;61.80;;;;;;5093484;28;19919;-72
2023/04/04 08:39:02;;;;;;;;;;;12.30;61.70;;;;;;5092845;28;20415;-76
2023/04/04 08:41:28;;;;;;;;;;;12.30;61.70;;;;;;5092801;28;19912;-71
2023/04/04 08:43:56;;;;;;;;;;;12.40;61.70;;;;;;5075190;28;19907;-72
2023/04/04 08:46:22;;;;;;;;;;;12.40;61.70;;;;;;5093703;28;19908;-73
2023/04/04 08:48:48;;;;;;;;;;;12.40;61.60;;;;;;5093609;28;19922;-69
2023/04/04 08:51:14;;;;;;;;;;;12.40;61.60;;;;;;5093521;28;20003;-72
2023/04/04 08:53:40;;;;;;;;;;;12.40;61.50;;;;;;5075463;28;19943;-73
2023/04/04 08:56:06;;;;;;;;;;;12.50;61.50;;;;;;5103298;28;19916;-70
2023/04/04 08:58:32;;;;;;;;;;;12.50;61.50;;;;;;5113588;28;19911;-75
2023/04/04 09:00:57;;;;;;;;;;;12.50;61.60;;;;;;5095771;28;19965;-75
2023/04/04 09:03:25;;;;;;;;;;;12.60;61.50;;;;;;5095896;28;19961;-82
2023/04/04 09:05:51;;;;;;;;;;;12.60;61.40;;;;;;5113668;28;20067;-74
2023/04/04 09:08:18;;;;;;;;;;;12.60;61.40;;;;;;5112282;28;20006;-75
2023/04/04 09:10:44;;;;;;;;;;;12.70;61.40;;;;;;5095198;28;19908;-74
2023/04/04 09:13:10;;;;;;;;;;;12.70;61.30;;;;;;5113205;28;20365;-75
2023/04/04 09:15:37;;;;;;;;;;;12.70;61.20;;;;;;5113854;28;19915;-77
2023/04/04 09:18:03;;;;;;;;;;;12.80;61.20;;;;;;5095287;28;20090;-79
2023/04/04 09:20:39;;;;;;;;;;;12.90;61.30;;;;;;5113262;28;19908;-76
2023/04/04 09:23:09;;;;;;;;;;;13.00;61.60;;;;;;5113522;28;20029;-75
2023/04/04 09:25:36;;;;;;;;;;;13.00;61.00;;;;;;5096802;28;19908;-76
2023/04/04 09:28:04;;;;;;;;;;;13.00;61.50;;;;;;5116809;28;19915;-74
2023/04/04 09:30:33;;;;;;;;;;;13.10;63.00;;;;;;5117128;28;19992;-75
2023/04/04 09:33:00;;;;;;;;;;;13.10;62.80;;;;;;5117455;28;19915;-76
2023/04/04 09:35:26;;;;;;;;;;;13.20;62.30;;;;;;5116920;28;20402;-77
2023/04/04 09:37:52;;;;;;;;;;;13.20;61.70;;;;;;5117608;28;20014;-78
2023/04/04 09:40:17;;;;;;;;;;;13.30;61.50;;;;;;5117297;28;20032;-71
2023/04/04 09:42:43;;;;;;;;;;;13.30;61.20;;;;;;5116567;28;19914;-76
2023/04/04 09:45:09;;;;;;;;;;;13.30;61.00;;;;;;5116350;28;19907;-74
2023/04/04 09:47:40;;;;;;;;;;;13.30;61.70;;;;;;5117079;28;19903;-74
2023/04/04 09:50:06;;;;;;;;;;;13.40;62.00;;;;;;5117057;28;19907;-76
2023/04/04 09:52:35;;;;;;;;;;;13.40;61.70;;;;;;5116776;28;19908;-75
2023/04/04 09:55:01;;;;;;;;;;;13.40;61.90;;;;;;5116414;28;19907;-73
2023/04/04 09:57:31;;;;;;;;;;;13.50;62.10;;;;;;5116304;28;20250;-77
2023/04/04 10:00:00;;;;;;;;;;;13.50;61.70;;;;;;5116067;28;19908;-78
2023/04/04 10:02:26;;;;;;;;;;;13.50;61.50;;;;;;5113215;28;19908;-76
2023/04/04 10:04:53;;;;;;;;;;;13.50;61.20;;;;;;5104496;28;19907;-77
2023/04/04 10:07:19;;;;;;;;;;;13.50;61.10;;;;;;5080719;28;19914;-75
2023/04/04 10:09:49;;;;;;;;;;;13.60;61.20;;;;;;5116571;28;19907;-76
2023/04/04 10:12:16;;;;;;;;;;;13.60;60.90;;;;;;5097003;28;20354;-75
2023/04/04 10:14:41;;;;;;;;;;;13.70;60.90;;;;;;5077808;28;19908;-73
2023/04/04 10:17:10;;;;;;;;;;;13.70;60.80;;;;;;5096613;28;19949;-70
2023/04/04 10:19:36;;;;;;;;;;;13.80;60.40;;;;;;5113256;28;20004;-75
2023/04/04 10:22:03;;;;;;;;;;;13.90;60.20;;;;;;5116515;28;19917;-74
2023/04/04 10:24:28;;;;;;;;;;;14.00;60.10;;;;;;5095895;28;19908;-75
2023/04/04 10:26:54;;;;;;;;;;;14.00;60.00;;;;;;5097281;28;20441;-73
2023/04/04 10:29:20;;;;;;;;;;;14.10;59.90;;;;;;5115224;28;19947;-73
2023/04/04 10:31:48;;;;;;;;;;;14.10;59.70;;;;;;5116421;28;19915;-72
2023/04/04 10:34:19;;;;;;;;;;;14.10;59.60;;;;;;5116522;28;19908;-74
2023/04/04 10:36:47;;;;;;;;;;;14.10;59.50;;;;;;5114507;28;19919;-74
2023/04/04 10:39:13;;;;;;;;;;;14.00;59.40;;;;;;5115711;28;19911;-76
2023/04/04 10:41:39;;;;;;;;;;;14.00;59.40;;;;;;5115948;28;20241;-82
2023/04/04 10:44:16;;;;;;;;;;;13.90;59.50;;;;;;5116258;28;19956;-78
2023/04/04 10:46:45;;;;;;;;;;;13.90;59.60;;;;;;5106731;28;19915;-82
2023/04/04 10:49:10;;;;;;;;;;;13.80;59.50;;;;;;5108803;28;19920;-77
2023/04/04 10:51:36;;;;;;;;;;;13.80;59.70;;;;;;5119812;27;19904;-78
2023/04/04 10:54:02;;;;;;;;;;;13.70;59.60;;;;;;5104929;28;20006;-78
2023/04/04 10:56:28;;;;;;;;;;;13.70;59.70;;;;;;5106683;28;20358;-77
2023/04/04 10:59:13;;;;;;;;;;;13.60;59.80;;;;;;5095340;28;20037;-77
2023/04/04 11:01:49;;;;;;;;;;;13.60;59.90;;;;;;5113174;28;19907;-75
2023/04/04 11:04:15;;;;;;;;;;;13.60;61.60;;;;;;5105622;28;20306;-76
2023/04/04 11:07:01;;;;;;;;;;;13.60;64.20;;;;;;5115764;28;19957;-75
2023/04/04 11:09:45;;;;;;;;;;;13.60;63.80;;;;;;5080735;28;19912;-79
2023/04/04 11:12:18;;;;;;;;;;;13.70;63.40;;;;;;5076949;28;19912;-79
2023/04/04 11:14:54;;;;;;;;;;;13.80;63.20;;;;;;5076906;28;19904;-78
2023/04/04 11:17:40;;;;;;;;;;;13.80;63.00;;;;;;5100158;28;19966;-79
2023/04/04 11:20:09;;;;;;;;;;;13.80;62.90;;;;;;5101459;28;20274;-74
2023/04/04 11:22:35;;;;;;;;;;;13.90;63.00;;;;;;5115361;28;19904;-77
2023/04/04 11:25:20;;;;;;;;;;;13.90;63.00;;;;;;5114846;28;19904;-74
2023/04/04 11:27:47;;;;;;;;;;;14.00;63.00;;;;;;5096857;28;19947;-74
2023/04/04 11:30:13;;;;;;;;;;;14.00;62.90;;;;;;5086845;28;19912;-75
2023/04/04 11:32:45;;;;;;;;;;;14.10;62.80;;;;;;5089126;28;19915;-74
2023/04/04 11:35:10;;;;;;;;;;;14.10;62.70;;;;;;5094610;28;20365;-76
2023/04/04 11:37:43;;;;;;;;;;;14.20;62.60;;;;;;5099423;28;19908;-76
2023/04/04 11:40:12;;;;;;;;;;;14.10;62.50;;;;;;5103276;28;20411;-76
2023/04/04 11:42:38;;;;;;;;;;;14.20;62.50;;;;;;5086055;28;19908;-77
2023/04/04 11:45:06;;;;;;;;;;;14.10;62.40;;;;;;5085946;28;19919;-75
2023/04/04 11:47:32;;;;;;;;;;;14.20;62.40;;;;;;5102492;28;19957;-75
2023/04/04 11:49:59;;;;;;;;;;;14.10;62.30;;;;;;5094645;28;20362;-73
2023/04/04 11:52:31;;;;;;;;;;;14.20;62.30;;;;;;5106256;28;19903;-74
2023/04/04 11:54:56;;;;;;;;;;;14.20;62.40;;;;;;5105090;28;19943;-74
2023/04/04 11:57:22;;;;;;;;;;;14.10;62.30;;;;;;5106549;28;20453;-74
2023/04/04 11:59:49;;;;;;;;;;;14.10;62.30;;;;;;5103367;28;19904;-76
2023/04/04 12:02:15;;;;;;;;;;;14.10;62.30;;;;;;5105259;28;19964;-76
2023/04/04 12:04:44;;;;;;;;;;;14.10;62.30;;;;;;5085444;28;19903;-76
2023/04/04 12:07:10;;;;;;;;;;;14.10;62.40;;;;;;5100509;28;19912;-77
2023/04/04 12:09:36;;;;;;;;;;;14.20;62.30;;;;;;5104288;28;19961;-76
2023/04/04 12:12:02;;;;;;;;;;;14.20;62.30;;;;;;5104012;28;19970;-76
2023/04/04 12:14:27;;;;;;;;;;;14.30;62.30;;;;;;5082296;28;19908;-75
2023/04/04 12:16:54;;;;;;;;;;;14.30;62.20;;;;;;5098277;28;19953;-75
2023/04/04 12:19:23;;;;;;;;;;;14.30;62.10;;;;;;5109581;28;19908;-73
2023/04/04 12:21:49;;;;;;;;;;;14.30;62.00;;;;;;5112442;28;19934;-73
2023/04/04 12:24:15;;;;;;;;;;;14.30;62.00;;;;;;5095599;28;19904;-73
2023/04/04 12:26:42;;;;;;;;;;;14.30;62.00;;;;;;5113274;28;20497;-75
2023/04/04 12:29:08;;;;;;;;;;;14.40;62.00;;;;;;5113051;28;19908;-69
2023/04/04 12:31:34;;;;;;;;;;;14.30;61.90;;;;;;5112701;28;20418;-69
2023/04/04 12:34:00;;;;;;;;;;;14.30;61.90;;;;;;5094810;28;19915;-72
2023/04/04 12:36:26;;;;;;;;;;;14.40;61.90;;;;;;5094460;28;19954;-69
2023/04/04 12:38:56;;;;;;;;;;;14.40;61.90;;;;;;5110051;28;19916;-70
2023/04/04 12:41:22;;;;;;;;;;;14.30;61.90;;;;;;5112713;28;19914;-77
2023/04/04 12:43:47;;;;;;;;;;;14.30;61.80;;;;;;5114077;28;19904;-71
2023/04/04 12:46:13;;;;;;;;;;;14.30;61.70;;;;;;5109919;28;19943;-73
2023/04/04 12:48:40;;;;;;;;;;;14.20;61.70;;;;;;5092733;28;19908;-75
2023/04/04 12:51:07;;;;;;;;;;;14.20;61.70;;;;;;5098223;28;19919;-71
2023/04/04 12:53:33;;;;;;;;;;;14.20;61.80;;;;;;5092766;28;20258;-69
2023/04/04 12:56:01;;;;;;;;;;;14.20;61.90;;;;;;5099592;28;19976;-75
2023/04/04 12:58:26;;;;;;;;;;;14.10;61.90;;;;;;5112427;28;19972;-70
2023/04/04 13:00:53;;;;;;;;;;;14.10;61.90;;;;;;5104133;28;19959;-77
2023/04/04 13:03:20;;;;;;;;;;;14.00;61.90;;;;;;5107056;28;19918;-72
2023/04/04 13:05:46;;;;;;;;;;;14.00;61.90;;;;;;5104784;28;19934;-75
2023/04/04 13:08:12;;;;;;;;;;;14.00;62.00;;;;;;5116075;28;19969;-72
2023/04/04 13:10:55;;;;;;;;;;;13.90;62.00;;;;;;5117107;28;20322;-73
2023/04/04 13:13:34;;;;;;;;;;;13.90;62.00;;;;;;5116642;28;20175;-73
2023/04/04 13:16:00;;;;;;;;;;;13.80;62.00;;;;;;5116095;28;20001;-75
2023/04/04 13:18:31;;;;;;;;;;;13.80;62.30;;;;;;5115642;28;20377;-71
2023/04/04 13:20:57;;;;;;;;;;;13.80;62.90;;;;;;5116657;28;19930;-74
2023/04/04 13:23:22;;;;;;;;;;;13.80;63.40;;;;;;5116848;28;20341;-70
2023/04/04 13:25:48;;;;;;;;;;;13.80;63.20;;;;;;5116759;28;19949;-73
2023/04/04 13:28:13;;;;;;;;;;;13.80;63.20;;;;;;5115803;28;19911;-74
2023/04/04 13:30:42;;;;;;;;;;;13.80;63.10;;;;;;5116406;28;19916;-70
2023/04/04 13:33:08;;;;;;;;;;;13.80;63.20;;;;;;5115760;28;19942;-72
2023/04/04 13:35:34;;;;;;;;;;;13.80;63.20;;;;;;5112408;28;20003;-76
2023/04/04 13:38:00;;;;;;;;;;;13.80;64.20;;;;;;5113800;28;20050;-73
2023/04/04 13:40:26;;;;;;;;;;;13.80;66.60;;;;;;5115716;28;19915;-77
2023/04/04 13:42:52;;;;;;;;;;;13.90;66.50;;;;;;5097317;28;19912;-73
2023/04/04 13:45:18;;;;;;;;;;;13.90;66.30;;;;;;5116414;28;19914;-75
2023/04/04 13:47:44;;;;;;;;;;;14.00;65.90;;;;;;5100163;28;19979;-74
2023/04/04 13:50:10;;;;;;;;;;;14.00;65.50;;;;;;5095651;28;19908;-72
2023/04/04 13:52:35;;;;;;;;;;;14.00;65.40;;;;;;5095367;28;19926;-76
2023/04/04 13:55:02;;;;;;;;;;;13.90;65.10;;;;;;5095115;28;20369;-74
2023/04/04 13:57:27;;;;;;;;;;;13.90;65.10;;;;;;5095892;28;20336;-73
2023/04/04 13:59:55;;;;;;;;;;;13.90;65.10;;;;;;5093000;28;20021;-75
2023/04/04 14:02:21;;;;;;;;;;;13.80;65.10;;;;;;5097958;28;19910;-74
2023/04/04 14:04:47;;;;;;;;;;;13.90;65.10;;;;;;5112025;28;19908;-74
2023/04/04 14:07:12;;;;;;;;;;;13.80;65.10;;;;;;5112897;28;20269;-73
2023/04/04 14:09:38;;;;;;;;;;;13.80;65.10;;;;;;5114649;28;19916;-74
2023/04/04 14:12:03;;;;;;;;;;;13.70;65.10;;;;;;5115308;28;19910;-75